Time;durP1;ratioP1;P1;durP2;ratioP2;P2;SDS_P1;SDS_P2;PMS_P1;PMS_P2;Temp;Humidity;BMP_temperature;BMP_pressure;BME280_temperature;BME280_humidity;BME280_pressure;Samples;Min_cycle;Max_cycle;Signal;HPM_P1;HPM_P2
2024/04/04 00:00:48;;;;;;;2.67;1.57;;;21.90;79.30;;;;;;5029116;28;20656;-72
2024/04/04 00:03:14;;;;;;;3.53;1.50;;;21.90;79.30;;;;;;5017503;28;20459;-73
2024/04/04 00:05:41;;;;;;;3.60;2.30;;;21.80;79.40;;;;;;5021306;28;20458;-72
2024/04/04 00:08:07;;;;;;;3.50;1.67;;;21.80;79.50;;;;;;5026771;28;20301;-72
2024/04/04 00:10:33;;;;;;;3.20;1.80;;;21.80;79.50;;;;;;5024159;28;20482;-73
2024/04/04 00:12:59;;;;;;;3.20;1.70;;;21.80;79.60;;;;;;5027650;28;20266;-72
2024/04/04 00:15:27;;;;;;;6.50;1.93;;;21.70;79.70;;;;;;5026975;28;20448;-72
2024/04/04 00:17:53;;;;;;;2.30;1.93;;;21.70;79.80;;;;;;5022576;28;20460;-72
2024/04/04 00:20:20;;;;;;;2.90;1.97;;;21.70;79.90;;;;;;5019933;28;20548;-73
2024/04/04 00:22:45;;;;;;;2.90;1.70;;;21.60;80.00;;;;;;5021766;28;20247;-72
2024/04/04 00:25:13;;;;;;;2.90;2.00;;;21.60;80.10;;;;;;5021422;28;20447;-72
2024/04/04 00:27:39;;;;;;;3.13;1.50;;;21.60;80.30;;;;;;5020534;28;20209;-73
2024/04/04 00:30:07;;;;;;;2.90;1.80;;;21.50;80.40;;;;;;5011450;28;20454;-72
2024/04/04 00:32:34;;;;;;;3.20;1.67;;;21.50;80.50;;;;;;5016650;28;20193;-72
2024/04/04 00:35:00;;;;;;;4.87;2.27;;;21.50;80.70;;;;;;5021874;28;20465;-73
2024/04/04 00:37:26;;;;;;;1.60;1.43;;;21.40;80.80;;;;;;5021283;28;20455;-73
2024/04/04 00:39:53;;;;;;;4.77;2.40;;;21.40;80.90;;;;;;5023969;28;20454;-72
2024/04/04 00:42:19;;;;;;;3.50;1.90;;;21.40;81.00;;;;;;5020449;28;20258;-72
2024/04/04 00:44:46;;;;;;;2.93;2.30;;;21.30;81.10;;;;;;5021162;28;20451;-72
2024/04/04 00:47:11;;;;;;;2.45;1.60;;;21.30;81.30;;;;;;5022394;28;20201;-71
2024/04/04 00:49:40;;;;;;;3.00;1.60;;;21.30;81.50;;;;;;5020488;28;21214;-71
2024/04/04 00:52:08;;;;;;;2.80;1.53;;;21.30;81.70;;;;;;5018598;28;20229;-71
2024/04/04 00:54:41;;;;;;;3.53;2.13;;;21.20;81.70;;;;;;5023503;28;20454;-71
2024/04/04 00:57:07;;;;;;;3.17;1.60;;;21.20;82.60;;;;;;5021208;28;20458;-72
2024/04/04 00:59:34;;;;;;;3.37;1.90;;;21.20;82.00;;;;;;5023624;28;21087;-75
2024/04/04 01:01:59;;;;;;;5.03;1.92;;;21.10;82.10;;;;;;5027463;28;20465;-71
2024/04/04 01:04:26;;;;;;;2.20;1.60;;;21.10;82.20;;;;;;5023678;28;20198;-72
2024/04/04 01:06:53;;;;;;;2.72;1.80;;;21.10;82.40;;;;;;5018567;28;20455;-73
2024/04/04 01:09:20;;;;;;;2.65;1.70;;;21.00;82.50;;;;;;5023904;28;20851;-72
2024/04/04 01:11:46;;;;;;;3.28;1.70;;;21.00;82.70;;;;;;5016591;28;20236;-72
2024/04/04 01:14:13;;;;;;;2.80;1.63;;;21.00;82.80;;;;;;5025973;28;20205;-72
2024/04/04 01:16:38;;;;;;;3.13;1.60;;;20.90;82.80;;;;;;5027561;28;21179;-72
2024/04/04 01:19:05;;;;;;;2.27;1.70;;;20.90;83.10;;;;;;5024445;28;20458;-72
2024/04/04 01:21:31;;;;;;;1.58;1.40;;;20.90;83.20;;;;;;5023905;28;21145;-72
2024/04/04 01:23:59;;;;;;;3.73;1.57;;;20.90;83.20;;;;;;5024734;28;20200;-72
2024/04/04 01:26:25;;;;;;;2.40;1.70;;;20.90;83.30;;;;;;5025272;28;21232;-72
2024/04/04 01:28:51;;;;;;;3.57;1.67;;;20.90;83.40;;;;;;5026700;28;20204;-72
2024/04/04 01:31:17;;;;;;;2.28;1.30;;;20.80;83.40;;;;;;5022835;28;20217;-72
2024/04/04 01:33:44;;;;;;;2.00;1.23;;;20.80;83.50;;;;;;5029628;28;20255;-72
2024/04/04 01:36:09;;;;;;;2.22;1.60;;;20.80;83.70;;;;;;5029067;28;20220;-71
2024/04/04 01:38:36;;;;;;;2.37;1.70;;;20.80;83.80;;;;;;5027240;28;21467;-72
2024/04/04 01:41:03;;;;;;;2.15;1.45;;;20.70;83.90;;;;;;5024526;28;20679;-73
2024/04/04 01:43:30;;;;;;;3.03;1.50;;;20.70;84.00;;;;;;5027487;28;20252;-72
2024/04/04 01:45:55;;;;;;;2.78;1.70;;;20.70;84.20;;;;;;5027749;28;22499;-72
2024/04/04 01:48:22;;;;;;;2.90;1.47;;;20.60;84.20;;;;;;5026918;28;20205;-72
2024/04/04 01:50:48;;;;;;;2.05;1.50;;;20.60;84.30;;;;;;5021485;28;20209;-72
2024/04/04 01:53:14;;;;;;;2.00;1.37;;;20.60;84.50;;;;;;5021856;28;20204;-72
2024/04/04 01:55:40;;;;;;;1.60;1.05;;;20.60;84.70;;;;;;5020877;28;20746;-72
2024/04/04 01:58:08;;;;;;;3.07;1.60;;;20.60;84.80;;;;;;5025626;28;20295;-72
2024/04/04 02:00:34;;;;;;;2.75;1.58;;;20.50;84.80;;;;;;5027044;28;20212;-71
2024/04/04 02:03:00;;;;;;;2.57;2.00;;;20.50;85.00;;;;;;5025262;28;20201;-71
2024/04/04 02:05:26;;;;;;;3.45;2.00;;;20.50;85.10;;;;;;5025463;28;20240;-72
2024/04/04 02:07:53;;;;;;;2.93;1.53;;;20.50;85.30;;;;;;5027594;28;20805;-73
2024/04/04 02:10:19;;;;;;;2.97;1.95;;;20.40;85.30;;;;;;5028013;28;20194;-71
2024/04/04 02:12:45;;;;;;;2.13;1.20;;;20.40;85.40;;;;;;5031035;28;20212;-72
2024/04/04 02:15:14;;;;;;;1.73;1.20;;;20.40;85.60;;;;;;5029080;28;21097;-71
2024/04/04 02:17:41;;;;;;;2.80;1.60;;;20.40;85.80;;;;;;5029271;28;20398;-72
2024/04/04 02:20:09;;;;;;;3.63;1.70;;;20.30;85.80;;;;;;5028878;28;20209;-72
2024/04/04 02:22:36;;;;;;;2.05;1.20;;;20.30;85.90;;;;;;5026495;28;20754;-74
2024/04/04 02:25:02;;;;;;;2.85;1.67;;;20.30;86.20;;;;;;5029012;28;20658;-74
2024/04/04 02:27:30;;;;;;;2.33;1.33;;;20.30;86.20;;;;;;5025743;28;20194;-72
2024/04/04 02:29:56;;;;;;;2.88;1.83;;;20.20;86.30;;;;;;5025385;28;20477;-72
2024/04/04 02:32:24;;;;;;;2.30;1.63;;;20.20;86.40;;;;;;5026931;28;20213;-72
2024/04/04 02:34:49;;;;;;;1.83;1.25;;;20.20;86.60;;;;;;5027076;28;20218;-72
2024/04/04 02:37:16;;;;;;;3.20;1.37;;;20.20;86.80;;;;;;5020073;28;20482;-74
2024/04/04 02:39:42;;;;;;;3.10;1.55;;;20.20;86.90;;;;;;5028693;28;22333;-74
2024/04/04 02:42:09;;;;;;;2.17;1.67;;;20.10;87.00;;;;;;5024976;28;20229;-71
2024/04/04 02:44:35;;;;;;;2.47;1.50;;;20.10;87.10;;;;;;5028724;28;21443;-72
2024/04/04 02:47:01;;;;;;;3.03;1.47;;;20.10;87.10;;;;;;5022572;28;20200;-72
2024/04/04 02:49:29;;;;;;;3.00;1.60;;;20.10;87.30;;;;;;5024221;28;22268;-71
2024/04/04 02:51:55;;;;;;;3.05;2.03;;;20.00;87.30;;;;;;5028024;28;20244;-71
2024/04/04 02:54:21;;;;;;;2.55;1.42;;;20.00;87.50;;;;;;5026875;28;20251;-72
2024/04/04 02:56:48;;;;;;;2.47;1.73;;;20.00;87.60;;;;;;5028720;28;20198;-71
2024/04/04 02:59:14;;;;;;;2.85;1.52;;;20.00;87.70;;;;;;5019204;28;20233;-71
2024/04/04 03:01:40;;;;;;;2.40;1.17;;;20.00;87.80;;;;;;5023263;28;20193;-72
2024/04/04 03:04:06;;;;;;;2.00;1.60;;;19.90;87.90;;;;;;5027809;28;20201;-72
2024/04/04 03:06:35;;;;;;;2.88;1.27;;;19.90;88.00;;;;;;5019210;28;20268;-72
2024/04/04 03:09:03;;;;;;;2.20;1.30;;;19.90;88.10;;;;;;5023463;28;20806;-72
2024/04/04 03:11:29;;;;;;;1.40;1.17;;;19.90;88.20;;;;;;5026559;28;20249;-72
2024/04/04 03:13:55;;;;;;;1.70;1.35;;;19.90;88.40;;;;;;5025870;28;22461;-69
2024/04/04 03:16:22;;;;;;;2.03;1.20;;;19.90;88.40;;;;;;5027646;28;20197;-69
2024/04/04 03:18:48;;;;;;;2.15;1.38;;;19.80;88.40;;;;;;5024311;28;20197;-71
2024/04/04 03:21:14;;;;;;;2.67;1.70;;;19.80;88.40;;;;;;5027931;28;20316;-71
2024/04/04 03:23:41;;;;;;;1.88;1.38;;;19.80;88.70;;;;;;5025289;28;21266;-68
2024/04/04 03:26:08;;;;;;;2.38;1.65;;;19.80;88.80;;;;;;5026785;28;20201;-71
2024/04/04 03:28:34;;;;;;;2.17;1.58;;;19.80;89.70;;;;;;5024858;28;20208;-71
2024/04/04 03:31:00;;;;;;;2.13;1.63;;;19.80;88.80;;;;;;5026864;28;20222;-71
2024/04/04 03:33:26;;;;;;;2.00;1.40;;;19.70;88.90;;;;;;5026127;28;20567;-69
2024/04/04 03:35:53;;;;;;;2.83;1.50;;;19.70;89.10;;;;;;5020188;28;20216;-71
2024/04/04 03:38:19;;;;;;;2.25;1.80;;;19.70;89.20;;;;;;5024509;28;20206;-71
2024/04/04 03:40:54;;;;;;;2.03;1.50;;;19.70;89.10;;;;;;5028661;28;20198;-72
2024/04/04 03:43:21;;;;;;;1.30;1.08;;;19.70;89.40;;;;;;5028322;28;21274;-70
2024/04/04 03:45:47;;;;;;;2.03;1.30;;;19.70;89.50;;;;;;5027236;28;20202;-72
2024/04/04 03:48:13;;;;;;;2.73;1.90;;;19.60;89.50;;;;;;5026750;28;20203;-71
2024/04/04 03:50:39;;;;;;;2.60;1.30;;;19.60;89.60;;;;;;5024577;28;20244;-72
2024/04/04 03:53:06;;;;;;;2.28;1.40;;;19.60;89.70;;;;;;5027174;28;21166;-71
2024/04/04 03:55:32;;;;;;;2.13;1.65;;;19.60;89.80;;;;;;5025157;28;20202;-71
2024/04/04 03:58:00;;;;;;;2.07;1.57;;;19.60;89.80;;;;;;5024897;28;20259;-71
2024/04/04 04:00:25;;;;;;;1.83;1.50;;;19.60;90.00;;;;;;5025897;28;23955;-72
2024/04/04 04:02:52;;;;;;;4.07;1.73;;;19.60;90.00;;;;;;5027762;28;20201;-71
2024/04/04 04:05:18;;;;;;;1.30;1.15;;;19.50;90.00;;;;;;5021790;28;22392;-71
2024/04/04 04:07:44;;;;;;;2.00;1.40;;;19.50;90.00;;;;;;5019214;28;20202;-71
2024/04/04 04:10:11;;;;;;;2.25;1.10;;;19.50;90.00;;;;;;5022052;28;20201;-73
2024/04/04 04:12:38;;;;;;;2.45;1.20;;;19.50;90.10;;;;;;5024018;28;20678;-71
2024/04/04 04:15:06;;;;;;;1.90;1.00;;;19.50;90.10;;;;;;5025597;28;20201;-72
2024/04/04 04:17:33;;;;;;;1.65;1.05;;;19.50;90.20;;;;;;5024154;28;20213;-71
2024/04/04 04:19:58;;;;;;;1.45;1.15;;;19.50;90.20;;;;;;5018891;28;20293;-72
2024/04/04 04:22:25;;;;;;;2.40;1.43;;;19.50;90.20;;;;;;5017681;28;20193;-71
2024/04/04 04:24:52;;;;;;;2.78;1.27;;;19.50;90.30;;;;;;5026777;28;20417;-72
2024/04/04 04:27:18;;;;;;;2.00;1.65;;;19.50;90.30;;;;;;5022024;28;20197;-71
2024/04/04 04:29:44;;;;;;;2.23;1.30;;;19.40;90.30;;;;;;5019108;28;20775;-69
2024/04/04 04:32:12;;;;;;;1.33;1.20;;;19.40;90.30;;;;;;5025235;28;20228;-69
2024/04/04 04:34:38;;;;;;;1.95;1.23;;;19.40;90.40;;;;;;5022373;28;20198;-72
2024/04/04 04:37:04;;;;;;;2.22;1.42;;;19.40;90.40;;;;;;5023440;28;20753;-69
2024/04/04 04:39:31;;;;;;;2.60;1.20;;;19.40;90.40;;;;;;5024592;28;20202;-71
2024/04/04 04:41:57;;;;;;;1.55;1.23;;;19.40;90.50;;;;;;5026594;28;20736;-71
2024/04/04 04:44:24;;;;;;;3.80;1.50;;;19.40;90.40;;;;;;5025096;28;20197;-69
2024/04/04 04:46:50;;;;;;;1.90;1.10;;;19.40;90.60;;;;;;5024054;28;20228;-71
2024/04/04 04:49:19;;;;;;;2.80;1.40;;;19.40;90.60;;;;;;5025277;28;22486;-73
2024/04/04 04:51:44;;;;;;;2.28;1.20;;;19.30;90.50;;;;;;5020431;28;20225;-73
2024/04/04 04:54:11;;;;;;;2.70;1.37;;;19.30;90.60;;;;;;5026088;28;20197;-71
2024/04/04 04:56:37;;;;;;;1.98;1.40;;;19.30;90.50;;;;;;5025868;28;20229;-74
2024/04/04 04:59:04;;;;;;;2.17;1.40;;;19.30;90.70;;;;;;5027272;28;22029;-72
2024/04/04 05:01:30;;;;;;;1.70;1.13;;;19.30;90.70;;;;;;5020072;28;20198;-72
2024/04/04 05:03:57;;;;;;;1.60;1.10;;;19.30;90.50;;;;;;5020455;28;20200;-72
2024/04/04 05:06:24;;;;;;;1.60;1.25;;;19.30;90.70;;;;;;5022330;28;20202;-71
2024/04/04 05:08:52;;;;;;;1.80;1.20;;;19.30;90.60;;;;;;5025190;28;22802;-72
2024/04/04 05:11:18;;;;;;;2.67;1.20;;;19.20;90.60;;;;;;5026179;28;20890;-72
2024/04/04 05:13:44;;;;;;;1.77;1.63;;;19.30;90.60;;;;;;5025360;28;20194;-72
2024/04/04 05:16:10;;;;;;;1.83;1.10;;;19.20;90.80;;;;;;5023275;28;20463;-72
2024/04/04 05:18:37;;;;;;;2.60;1.47;;;19.20;90.70;;;;;;5022870;28;20767;-71
2024/04/04 05:21:04;;;;;;;3.90;1.20;;;19.20;90.60;;;;;;5022502;28;20197;-73
2024/04/04 05:23:32;;;;;;;2.22;1.33;;;19.20;90.50;;;;;;5019954;28;20202;-72
2024/04/04 05:25:58;;;;;;;2.58;1.25;;;19.10;90.80;;;;;;5024262;28;21281;-71
2024/04/04 05:28:26;;;;;;;1.27;1.00;;;19.10;90.60;;;;;;5023286;28;20206;-69
2024/04/04 05:30:53;;;;;;;1.83;1.15;;;19.10;90.40;;;;;;5022387;28;20202;-71
2024/04/04 05:33:20;;;;;;;1.58;1.08;;;19.10;90.90;;;;;;5023056;28;20221;-72
2024/04/04 05:35:46;;;;;;;2.20;1.20;;;19.10;90.90;;;;;;5022934;28;20219;-72
2024/04/04 05:38:12;;;;;;;2.00;1.20;;;19.10;91.00;;;;;;5024805;28;20304;-71
2024/04/04 05:40:40;;;;;;;2.00;1.35;;;19.10;91.10;;;;;;5027505;28;20463;-71
2024/04/04 05:43:06;;;;;;;3.13;1.35;;;19.10;90.80;;;;;;5025297;28;20197;-71
2024/04/04 05:45:32;;;;;;;2.10;1.30;;;19.10;91.00;;;;;;5030168;28;20206;-73
2024/04/04 05:47:59;;;;;;;1.50;1.03;;;19.10;91.10;;;;;;5028462;28;20207;-69
2024/04/04 05:50:26;;;;;;;1.10;0.80;;;19.00;90.90;;;;;;5025011;28;20483;-71
2024/04/04 05:52:53;;;;;;;2.10;1.20;;;19.10;91.10;;;;;;5024551;28;20229;-72
2024/04/04 05:55:18;;;;;;;1.23;1.00;;;19.00;91.10;;;;;;5025264;28;20202;-71
2024/04/04 05:57:48;;;;;;;1.83;1.33;;;19.00;91.20;;;;;;5031245;28;20317;-73
2024/04/04 06:00:15;;;;;;;2.97;1.75;;;19.00;91.20;;;;;;5027738;28;20198;-71
2024/04/04 06:02:41;;;;;;;1.15;0.80;;;19.00;91.10;;;;;;5028018;28;20322;-70
2024/04/04 06:05:07;;;;;;;2.00;1.17;;;19.00;91.40;;;;;;5027867;28;20212;-72
2024/04/04 06:07:34;;;;;;;2.00;1.27;;;19.00;91.20;;;;;;5027745;28;20201;-72
2024/04/04 06:10:00;;;;;;;1.25;1.15;;;19.00;91.20;;;;;;5027219;28;20213;-72
2024/04/04 06:12:27;;;;;;;2.13;1.20;;;19.00;91.50;;;;;;5027730;28;20333;-71
2024/04/04 06:14:54;;;;;;;2.10;1.45;;;19.00;91.30;;;;;;5026047;28;20458;-73
2024/04/04 06:17:21;;;;;;;1.42;1.10;;;19.00;91.30;;;;;;5029240;28;22403;-72
2024/04/04 06:19:47;;;;;;;2.40;1.38;;;19.00;91.20;;;;;;5027337;28;21463;-72
2024/04/04 06:22:13;;;;;;;2.30;1.40;;;19.00;91.30;;;;;;5026925;28;20189;-72
2024/04/04 06:24:39;;;;;;;1.75;1.10;;;19.00;91.40;;;;;;5029525;28;20197;-72
2024/04/04 06:27:06;;;;;;;2.23;1.00;;;19.00;91.40;;;;;;5027216;28;20203;-71
2024/04/04 06:29:33;;;;;;;2.30;1.38;;;19.00;91.40;;;;;;5028308;28;20470;-72
2024/04/04 06:32:04;;;;;;;2.20;1.40;;;19.00;91.40;;;;;;5028277;28;20249;-73
2024/04/04 06:34:29;;;;;;;1.42;1.05;;;18.90;91.40;;;;;;5027868;28;20956;-72
2024/04/04 06:36:56;;;;;;;1.53;1.17;;;18.90;91.50;;;;;;5020867;28;20205;-72
2024/04/04 06:39:22;;;;;;;1.90;1.25;;;18.90;91.70;;;;;;5022626;28;20210;-72
2024/04/04 06:41:49;;;;;;;1.77;1.10;;;19.10;91.70;;;;;;5028282;28;20201;-72
2024/04/04 06:44:15;;;;;;;1.75;1.10;;;19.10;91.60;;;;;;5027997;28;20205;-72
2024/04/04 06:46:41;;;;;;;1.10;0.90;;;19.20;91.50;;;;;;5025407;28;20699;-73
2024/04/04 06:49:09;;;;;;;1.45;1.00;;;19.40;91.40;;;;;;5023351;28;20264;-73
2024/04/04 06:51:36;;;;;;;1.63;1.00;;;19.40;91.30;;;;;;5020166;28;20684;-73
2024/04/04 06:54:02;;;;;;;1.33;0.90;;;19.50;91.50;;;;;;5027990;28;20315;-73
2024/04/04 06:56:29;;;;;;;2.85;1.38;;;19.70;91.50;;;;;;5027556;28;20336;-74
2024/04/04 06:58:54;;;;;;;1.67;1.27;;;19.80;91.30;;;;;;5026031;28;20304;-75
2024/04/04 07:01:21;;;;;;;1.50;0.93;;;19.80;91.30;;;;;;5022123;28;20650;-74
2024/04/04 07:03:47;;;;;;;2.25;1.30;;;19.80;91.80;;;;;;5027514;28;20202;-74
2024/04/04 07:06:15;;;;;;;1.63;1.10;;;19.80;91.50;;;;;;5027137;28;21834;-73
2024/04/04 07:08:40;;;;;;;2.25;1.15;;;19.90;91.50;;;;;;5025814;28;20197;-73
2024/04/04 07:11:09;;;;;;;1.87;1.43;;;19.90;91.40;;;;;;5027958;28;20200;-72
2024/04/04 07:13:36;;;;;;;1.75;1.50;;;19.90;91.40;;;;;;5024080;28;20221;-73
2024/04/04 07:16:04;;;;;;;2.17;1.15;;;19.80;91.20;;;;;;5023156;28;20197;-74
2024/04/04 07:18:31;;;;;;;1.98;1.30;;;19.80;91.50;;;;;;5024053;28;21194;-73
2024/04/04 07:20:58;;;;;;;1.77;1.08;;;19.80;91.70;;;;;;5026068;28;21093;-73
2024/04/04 07:23:25;;;;;;;1.90;1.02;;;19.80;91.60;;;;;;5029791;28;20200;-73
2024/04/04 07:25:53;;;;;;;2.42;1.33;;;19.90;91.40;;;;;;5059200;28;20750;-73
2024/04/04 07:28:19;;;;;;;2.33;1.20;;;20.00;91.60;;;;;;5058522;28;20194;-72
2024/04/04 07:30:45;;;;;;;1.40;0.93;;;20.00;91.50;;;;;;5059246;28;20204;-73
2024/04/04 07:33:11;;;;;;;2.42;1.30;;;20.10;91.30;;;;;;5057081;28;20218;-74
2024/04/04 07:35:39;;;;;;;3.23;0.93;;;20.10;91.40;;;;;;5059432;28;20909;-74
2024/04/04 07:38:05;;;;;;;1.63;1.00;;;20.10;91.50;;;;;;5060665;28;20987;-74
2024/04/04 07:40:34;;;;;;;2.30;1.10;;;20.20;91.70;;;;;;5059235;28;20530;-74
2024/04/04 07:43:01;;;;;;;1.57;1.00;;;20.20;91.50;;;;;;5061775;28;20878;-74
2024/04/04 07:45:28;;;;;;;3.07;1.10;;;20.20;91.30;;;;;;5059206;28;20456;-72
2024/04/04 07:47:53;;;;;;;2.25;1.27;;;20.20;91.20;;;;;;5057991;28;20456;-72
2024/04/04 07:50:21;;;;;;;2.30;1.47;;;20.20;91.00;;;;;;5061100;28;20204;-72
2024/04/04 07:52:48;;;;;;;2.93;1.03;;;20.30;91.10;;;;;;5058438;28;20368;-73
2024/04/04 07:55:15;;;;;;;2.40;1.00;;;20.40;90.90;;;;;;5062089;28;21303;-73
2024/04/04 07:57:42;;;;;;;2.40;0.93;;;20.40;90.70;;;;;;5059720;28;20964;-73
2024/04/04 08:00:13;;;;;;;1.30;1.03;;;20.50;90.50;;;;;;5061088;28;20460;-73
2024/04/04 08:02:39;;;;;;;1.90;1.20;;;20.60;90.60;;;;;;5055847;28;20547;-72
2024/04/04 08:05:06;;;;;;;1.10;0.90;;;20.60;90.10;;;;;;5054207;28;20203;-72
2024/04/04 08:07:36;;;;;;;2.30;1.65;;;20.60;90.00;;;;;;5062835;28;20456;-72
2024/04/04 08:10:05;;;;;;;1.20;0.90;;;20.60;89.90;;;;;;5061882;28;20195;-72
2024/04/04 08:12:31;;;;;;;2.05;1.30;;;20.60;89.60;;;;;;5062945;28;20951;-73
2024/04/04 08:15:00;;;;;;;2.50;1.20;;;20.60;89.30;;;;;;5067109;28;20285;-72
2024/04/04 08:17:25;;;;;;;1.93;1.10;;;20.70;89.20;;;;;;5063625;28;20466;-73
2024/04/04 08:19:54;;;;;;;1.93;1.23;;;20.70;88.70;;;;;;5063210;28;20459;-73
2024/04/04 08:22:20;;;;;;;2.03;1.05;;;20.80;88.50;;;;;;5063327;28;20284;-71
2024/04/04 08:24:47;;;;;;;1.50;1.10;;;20.80;88.10;;;;;;5061919;28;20837;-73
2024/04/04 08:27:14;;;;;;;1.90;1.20;;;20.90;87.90;;;;;;5063750;28;20573;-73
2024/04/04 08:29:40;;;;;;;1.80;1.10;;;20.90;87.50;;;;;;5063625;28;20549;-72
2024/04/04 08:32:08;;;;;;;1.83;1.10;;;21.00;87.20;;;;;;5065029;28;20475;-72
2024/04/04 08:34:34;;;;;;;10.17;1.60;;;21.00;86.80;;;;;;5054372;28;20470;-73
2024/04/04 08:37:01;;;;;;;2.67;1.13;;;21.00;86.50;;;;;;5059771;28;21011;-73
2024/04/04 08:39:27;;;;;;;1.70;0.93;;;21.10;86.40;;;;;;5058257;28;20592;-74
2024/04/04 08:41:54;;;;;;;1.30;1.00;;;21.10;86.70;;;;;;5064352;28;20978;-74
2024/04/04 08:44:21;;;;;;;1.60;1.20;;;21.10;87.50;;;;;;5056466;28;20456;-74
2024/04/04 08:46:49;;;;;;;5.45;1.40;;;18.70;91.60;;;;;;5060115;28;20534;-78
2024/04/04 08:49:19;;;;;;;1.95;1.10;;;18.10;95.00;;;;;;5065991;28;20228;-75
2024/04/04 08:51:45;;;;;;;2.55;1.10;;;19.60;93.30;;;;;;5063364;28;20198;-73
2024/04/04 08:54:13;;;;;;;2.83;1.25;;;20.20;91.80;;;;;;4911651;28;20292;-73
2024/04/04 08:56:41;;;;;;;2.67;1.00;;;20.50;91.20;;;;;;4899761;28;20202;-73
2024/04/04 08:59:07;;;;;;;1.80;1.00;;;20.70;90.50;;;;;;4910617;28;21559;-72
2024/04/04 09:01:33;;;;;;;2.13;1.20;;;20.80;90.10;;;;;;4911362;28;20454;-75
2024/04/04 09:03:59;;;;;;;4.73;0.87;;;20.90;89.80;;;;;;4920207;28;20863;-75
2024/04/04 09:06:27;;;;;;;1.20;1.00;;;20.90;89.30;;;;;;4919240;28;20447;-74
2024/04/04 09:08:56;;;;;;;1.20;0.80;;;20.90;89.00;;;;;;4911989;28;20206;-74
2024/04/04 09:11:26;;;;;;;2.40;0.80;;;21.00;88.80;;;;;;4906998;28;20709;-74
2024/04/04 09:14:05;;;;;;;1.80;1.10;;;21.00;88.50;;;;;;4909855;28;20517;-74
2024/04/04 09:16:32;;;;;;;1.23;1.00;;;21.00;88.20;;;;;;4914143;28;20442;-76
2024/04/04 09:19:11;;;;;;;2.10;1.23;;;21.00;88.00;;;;;;4953710;28;20467;-73
2024/04/04 09:21:39;;;;;;;2.13;1.33;;;21.00;87.60;;;;;;5068018;28;20492;-72
2024/04/04 09:24:06;;;;;;;1.53;1.00;;;21.10;87.60;;;;;;5039287;28;20829;-73
2024/04/04 09:26:33;;;;;;;1.60;1.10;;;21.10;87.90;;;;;;5067203;28;20448;-72
2024/04/04 09:28:59;;;;;;;2.15;0.88;;;21.10;88.40;;;;;;5068129;28;20882;-72
2024/04/04 09:31:28;;;;;;;1.40;0.80;;;21.10;89.00;;;;;;5068336;28;20213;-70
2024/04/04 09:33:56;;;;;;;4.27;1.20;;;21.10;89.30;;;;;;5067146;28;20995;-71
2024/04/04 09:36:24;;;;;;;4.53;1.07;;;21.20;89.60;;;;;;5066750;28;20457;-73
2024/04/04 09:38:52;;;;;;;1.40;1.00;;;21.20;90.10;;;;;;5068392;28;20458;-74
2024/04/04 09:41:20;;;;;;;1.27;1.00;;;21.20;90.40;;;;;;5067053;28;20475;-72
2024/04/04 09:43:46;;;;;;;3.10;1.40;;;21.20;90.80;;;;;;5067792;28;20454;-71
2024/04/04 09:46:16;;;;;;;2.20;1.00;;;21.30;91.10;;;;;;5067748;28;20456;-73
2024/04/04 09:48:44;;;;;;;3.80;1.07;;;21.30;91.30;;;;;;5063439;28;20194;-72
2024/04/04 09:51:11;;;;;;;3.27;1.50;;;21.40;91.40;;;;;;5065509;28;20443;-72
2024/04/04 09:53:37;;;;;;;2.43;1.00;;;21.40;91.50;;;;;;5064403;28;21198;-72
2024/04/04 09:56:06;;;;;;;4.83;1.20;;;21.50;91.60;;;;;;5065358;28;20467;-72
2024/04/04 09:58:32;;;;;;;2.13;1.00;;;21.60;91.80;;;;;;5065948;28;20459;-71
2024/04/04 10:01:10;;;;;;;1.80;1.10;;;21.70;91.90;;;;;;5065866;28;20473;-71
2024/04/04 10:03:36;;;;;;;2.57;1.23;;;21.80;92.10;;;;;;5065996;28;20458;-72
2024/04/04 10:06:03;;;;;;;1.40;1.30;;;21.90;92.00;;;;;;5061449;28;20948;-71
2024/04/04 10:08:30;;;;;;;2.40;1.10;;;21.90;92.20;;;;;;5064687;28;20460;-71
2024/04/04 10:11:06;;;;;;;2.13;1.30;;;22.00;92.20;;;;;;5065233;28;20543;-71
2024/04/04 10:13:31;;;;;;;2.83;1.23;;;21.90;92.40;;;;;;5060866;28;20481;-71
2024/04/04 10:15:59;;;;;;;1.60;1.30;;;22.00;92.80;;;;;;5065595;28;20447;-74
2024/04/04 10:18:25;;;;;;;6.30;1.70;;;22.00;92.90;;;;;;5065061;28;20619;-71
2024/04/04 10:20:52;;;;;;;4.97;1.67;;;22.00;93.10;;;;;;5066062;28;20458;-71
2024/04/04 10:23:22;;;;;;;3.50;1.47;;;22.00;93.10;;;;;;5065738;28;20198;-76
2024/04/04 10:25:48;;;;;;;2.90;1.10;;;22.00;93.20;;;;;;5064841;28;20482;-73
2024/04/04 10:28:16;;;;;;;1.30;0.70;;;22.00;93.20;;;;;;5064240;28;20456;-76
2024/04/04 10:30:43;;;;;;;0.90;0.70;;;21.30;86.70;;;;;;5064485;28;20452;-72
2024/04/04 10:33:11;;;;;;;1.10;0.75;;;19.90;90.10;;;;;;5063649;28;20553;-71
2024/04/04 10:35:38;;;;;;;2.40;0.98;;;19.40;91.20;;;;;;5066344;28;20233;-72
2024/04/04 10:38:08;;;;;;;1.50;0.93;;;19.40;92.50;;;;;;5065226;28;21216;-72
2024/04/04 10:40:35;;;;;;;1.75;1.10;;;19.10;94.00;;;;;;5059337;28;20204;-72
2024/04/04 10:43:03;;;;;;;2.13;1.40;;;20.40;95.30;;;;;;5061936;28;20202;-73
2024/04/04 10:45:31;;;;;;;6.47;1.40;;;20.90;94.30;;;;;;5062234;28;20216;-72
2024/04/04 10:47:57;;;;;;;2.35;1.20;;;21.20;93.60;;;;;;5062974;28;20202;-73
2024/04/04 10:50:27;;;;;;;2.05;1.10;;;21.30;93.30;;;;;;5064410;28;20193;-72
2024/04/04 10:52:53;;;;;;;2.00;1.10;;;21.50;93.20;;;;;;5066801;28;21085;-73
2024/04/04 10:55:20;;;;;;;3.03;1.40;;;21.50;93.10;;;;;;5070763;28;21207;-71
2024/04/04 10:57:51;;;;;;;3.33;1.17;;;21.60;93.10;;;;;;5066480;28;20482;-71
2024/04/04 11:00:19;;;;;;;2.10;1.33;;;21.60;92.90;;;;;;5072420;28;20193;-72
2024/04/04 11:02:48;;;;;;;1.10;0.90;;;21.70;92.90;;;;;;5067394;28;20462;-71
2024/04/04 11:05:14;;;;;;;2.00;1.00;;;21.70;92.60;;;;;;5066525;28;20461;-71
2024/04/04 11:07:42;;;;;;;1.87;0.80;;;21.80;92.60;;;;;;5065515;28;20467;-72
2024/04/04 11:10:08;;;;;;;1.30;1.00;;;21.80;92.60;;;;;;5066088;28;20462;-72
2024/04/04 11:12:36;;;;;;;2.23;1.30;;;21.90;92.50;;;;;;5064133;28;21098;-71
2024/04/04 11:15:01;;;;;;;2.50;1.10;;;21.90;92.40;;;;;;5062926;28;20459;-71
2024/04/04 11:17:30;;;;;;;1.77;1.07;;;21.90;92.70;;;;;;5063601;28;20457;-71
2024/04/04 11:20:07;;;;;;;2.23;1.43;;;21.90;92.70;;;;;;5063915;28;20198;-74
2024/04/04 11:22:35;;;;;;;1.83;1.10;;;21.90;92.60;;;;;;5067893;28;21375;-75
2024/04/04 11:25:01;;;;;;;1.50;1.00;;;22.00;91.20;;;;;;5071397;28;20463;-75
2024/04/04 11:27:28;;;;;;;1.60;1.07;;;22.00;90.60;;;;;;5075296;28;20494;-77
2024/04/04 11:29:53;;;;;;;1.97;1.00;;;22.10;90.20;;;;;;5066216;28;20870;-73
2024/04/04 11:32:21;;;;;;;2.13;1.23;;;22.10;90.10;;;;;;5059780;28;20450;-73
2024/04/04 11:34:46;;;;;;;3.73;0.80;;;22.20;90.20;;;;;;5061290;28;20206;-70
2024/04/04 11:37:14;;;;;;;2.90;1.57;;;22.20;90.20;;;;;;5062651;28;20439;-73
2024/04/04 11:39:40;;;;;;;1.73;1.03;;;22.20;90.10;;;;;;5058964;28;20283;-73
2024/04/04 11:42:07;;;;;;;2.93;1.70;;;22.20;90.00;;;;;;5064257;28;20448;-73
2024/04/04 11:44:33;;;;;;;1.33;0.90;;;22.30;90.00;;;;;;5064180;28;20217;-73
2024/04/04 11:47:00;;;;;;;2.00;1.00;;;22.30;90.00;;;;;;5063272;28;20558;-73
2024/04/04 11:49:26;;;;;;;1.67;1.10;;;22.40;90.00;;;;;;5063766;28;20466;-72
2024/04/04 11:51:53;;;;;;;1.10;0.90;;;22.40;89.90;;;;;;5056690;28;20452;-73
2024/04/04 11:54:20;;;;;;;1.67;1.10;;;22.40;89.80;;;;;;5064264;28;20213;-72
2024/04/04 11:56:47;;;;;;;2.53;1.20;;;22.50;89.80;;;;;;5062524;28;23067;-74
2024/04/04 11:59:13;;;;;;;2.27;1.00;;;22.50;89.60;;;;;;5063641;28;20467;-74
2024/04/04 12:01:40;;;;;;;1.47;1.00;;;22.50;89.40;;;;;;5062534;28;21028;-73
2024/04/04 12:04:07;;;;;;;1.33;0.93;;;22.50;89.30;;;;;;5065130;28;20285;-71
2024/04/04 12:06:34;;;;;;;1.20;0.87;;;22.50;88.90;;;;;;5065401;28;21345;-72
2024/04/04 12:09:00;;;;;;;1.60;1.10;;;22.60;88.80;;;;;;5067361;28;20472;-72
2024/04/04 12:11:28;;;;;;;2.17;0.90;;;22.60;88.50;;;;;;5064966;28;21082;-72
2024/04/04 12:13:54;;;;;;;1.30;1.00;;;22.60;88.30;;;;;;5064552;28;21007;-74
2024/04/04 12:16:21;;;;;;;1.60;1.50;;;22.60;88.10;;;;;;5064672;28;20452;-71
2024/04/04 12:21:34;;;;;;;1.67;1.23;;;22.70;87.50;;;;;;5063428;28;20490;-72
2024/04/04 12:24:01;;;;;;;1.70;0.80;;;22.70;87.30;;;;;;5064048;28;20455;-73
2024/04/04 12:26:29;;;;;;;1.27;0.90;;;22.70;87.20;;;;;;5066861;28;20491;-71
2024/04/04 12:28:55;;;;;;;1.73;1.00;;;22.70;87.00;;;;;;5063595;28;21151;-76
2024/04/04 12:31:22;;;;;;;1.23;0.90;;;22.70;86.70;;;;;;5063038;28;20558;-73
2024/04/04 12:33:47;;;;;;;1.30;0.83;;;22.80;86.70;;;;;;5060025;28;20583;-72
2024/04/04 12:36:15;;;;;;;1.17;0.70;;;22.80;86.50;;;;;;5061721;28;21029;-72
2024/04/04 12:38:40;;;;;;;1.47;0.87;;;22.80;86.20;;;;;;5064496;28;20673;-72
2024/04/04 12:41:07;;;;;;;2.77;1.00;;;22.80;86.20;;;;;;5061754;28;20448;-72
2024/04/04 12:43:34;;;;;;;1.67;0.80;;;22.80;86.00;;;;;;5056812;28;20182;-73
2024/04/04 12:46:03;;;;;;;1.03;0.90;;;22.80;85.90;;;;;;5060093;28;20456;-73
2024/04/04 12:48:29;;;;;;;1.40;0.83;;;22.80;85.70;;;;;;5057156;28;20457;-73